sensor_id;sensor_type;location;lat;lon;timestamp;pressure;altitude;pressure_sealevel;temperature;humidity
65276;BME280;51875;49.994;14.052;2023-11-19T00:01:00;98538.47;;;3.59;100.00
65276;BME280;51875;49.994;14.052;2023-11-19T00:02:36;98533.28;;;3.54;100.00
65276;BME280;51875;49.994;14.052;2023-11-19T00:03:51;98524.69;;;3.88;100.00
65276;BME280;51875;49.994;14.052;2023-11-19T00:05:07;98524.69;;;3.72;100.00
65276;BME280;51875;49.994;14.052;2023-11-19T00:06:29;98516.88;;;3.44;100.00
65276;BME280;51875;49.994;14.052;2023-11-19T00:07:45;98516.94;;;3.72;100.00
65276;BME280;51875;49.994;14.052;2023-11-19T00:09:00;98513.47;;;3.86;100.00
65276;BME280;51875;49.994;14.052;2023-11-19T00:10:17;98508.31;;;3.86;100.00
65276;BME280;51875;49.994;14.052;2023-11-19T00:11:36;98516.94;;;3.78;100.00
65276;BME280;51875;49.994;14.052;2023-11-19T00:12:51;98505.72;;;3.81;100.00
65276;BME280;51875;49.994;14.052;2023-11-19T00:14:07;98495.34;;;3.81;100.00
65276;BME280;51875;49.994;14.052;2023-11-19T00:15:24;98482.41;;;3.67;100.00
65276;BME280;51875;49.994;14.052;2023-11-19T00:16:39;98478.94;;;3.43;100.00
65276;BME280;51875;49.994;14.052;2023-11-19T00:17:55;98473.78;;;3.49;100.00
65276;BME280;51875;49.994;14.052;2023-11-19T00:19:10;98472.03;;;3.70;100.00
65276;BME280;51875;49.994;14.052;2023-11-19T00:20:26;98471.19;;;3.77;100.00
65276;BME280;51875;49.994;14.052;2023-11-19T00:21:41;98473.78;;;3.71;100.00
65276;BME280;51875;49.994;14.052;2023-11-19T00:22:57;98474.63;;;3.70;100.00
65276;BME280;51875;49.994;14.052;2023-11-19T00:24:12;98473.78;;;3.68;100.00
65276;BME280;51875;49.994;14.052;2023-11-19T00:25:28;98469.47;;;3.86;100.00
65276;BME280;51875;49.994;14.052;2023-11-19T00:26:44;98472.91;;;3.77;100.00
65276;BME280;51875;49.994;14.052;2023-11-19T00:27:59;98468.59;;;3.73;100.00
65276;BME280;51875;49.994;14.052;2023-11-19T00:29:15;98463.44;;;3.57;100.00
65276;BME280;51875;49.994;14.052;2023-11-19T00:30:31;98458.22;;;3.56;100.00
65276;BME280;51875;49.994;14.052;2023-11-19T00:31:46;98458.25;;;3.52;100.00
65276;BME280;51875;49.994;14.052;2023-11-19T00:33:02;98454.78;;;3.85;100.00
65276;BME280;51875;49.994;14.052;2023-11-19T00:34:19;98440.97;;;3.55;100.00
65276;BME280;51875;49.994;14.052;2023-11-19T00:35:36;98427.16;;;3.87;100.00
65276;BME280;51875;49.994;14.052;2023-11-19T00:36:52;98417.69;;;3.44;100.00
65276;BME280;51875;49.994;14.052;2023-11-19T00:38:08;98423.72;;;3.43;100.00
65276;BME280;51875;49.994;14.052;2023-11-19T00:39:23;98435.78;;;3.61;100.00
65276;BME280;51875;49.994;14.052;2023-11-19T00:40:39;98436.69;;;3.58;100.00
65276;BME280;51875;49.994;14.052;2023-11-19T00:41:56;98445.25;;;3.42;100.00
65276;BME280;51875;49.994;14.052;2023-11-19T00:43:12;98453.06;;;3.59;100.00
65276;BME280;51875;49.994;14.052;2023-11-19T00:44:27;98446.16;;;3.61;100.00
65276;BME280;51875;49.994;14.052;2023-11-19T00:45:43;98451.34;;;3.64;100.00
65276;BME280;51875;49.994;14.052;2023-11-19T00:46:58;98434.94;;;3.60;100.00
65276;BME280;51875;49.994;14.052;2023-11-19T00:48:15;98433.22;;;3.44;100.00
65276;BME280;51875;49.994;14.052;2023-11-19T00:49:31;98438.41;;;3.51;100.00
65276;BME280;51875;49.994;14.052;2023-11-19T00:50:48;98440.09;;;3.40;100.00
65276;BME280;51875;49.994;14.052;2023-11-19T00:52:04;98436.66;;;3.53;100.00
65276;BME280;51875;49.994;14.052;2023-11-19T00:53:21;98443.56;;;3.50;100.00
65276;BME280;51875;49.994;14.052;2023-11-19T00:54:37;98437.50;;;3.46;100.00
65276;BME280;51875;49.994;14.052;2023-11-19T00:55:52;98433.19;;;3.28;100.00
65276;BME280;51875;49.994;14.052;2023-11-19T00:57:08;98429.75;;;3.29;100.00
65276;BME280;51875;49.994;14.052;2023-11-19T00:58:23;98426.31;;;3.58;100.00
65276;BME280;51875;49.994;14.052;2023-11-19T00:59:43;98424.59;;;3.57;100.00
65276;BME280;51875;49.994;14.052;2023-11-19T01:00:59;98429.75;;;3.70;100.00
65276;BME280;51875;49.994;14.052;2023-11-19T01:02:15;98416.81;;;3.65;100.00
65276;BME280;51875;49.994;14.052;2023-11-19T01:03:30;98410.78;;;3.49;100.00
65276;BME280;51875;49.994;14.052;2023-11-19T01:04:47;98411.59;;;3.82;100.00
65276;BME280;51875;49.994;14.052;2023-11-19T01:06:02;98413.38;;;3.71;100.00
65276;BME280;51875;49.994;14.052;2023-11-19T01:07:18;98401.25;;;3.87;100.00
65276;BME280;51875;49.994;14.052;2023-11-19T01:08:33;98406.44;;;3.46;100.00
65276;BME280;51875;49.994;14.052;2023-11-19T01:09:51;98397.81;;;3.18;100.00
65276;BME280;51875;49.994;14.052;2023-11-19T01:11:06;98395.22;;;3.64;100.00
65276;BME280;51875;49.994;14.052;2023-11-19T01:12:22;98391.78;;;3.50;100.00
65276;BME280;51875;49.994;14.052;2023-11-19T01:13:38;98389.19;;;3.72;100.00
65276;BME280;51875;49.994;14.052;2023-11-19T01:14:53;98385.75;;;3.29;100.00
65276;BME280;51875;49.994;14.052;2023-11-19T01:16:09;98390.06;;;3.74;100.00
65276;BME280;51875;49.994;14.052;2023-11-19T01:17:25;98387.44;;;3.89;100.00
65276;BME280;51875;49.994;14.052;2023-11-19T01:18:40;98382.22;;;3.91;100.00
65276;BME280;51875;49.994;14.052;2023-11-19T01:19:56;98375.38;;;3.62;100.00
65276;BME280;51875;49.994;14.052;2023-11-19T01:21:12;98369.31;;;3.80;100.00
65276;BME280;51875;49.994;14.052;2023-11-19T01:22:27;98361.53;;;3.80;100.00
65276;BME280;51875;49.994;14.052;2023-11-19T01:23:43;98352.00;;;3.94;100.00
65276;BME280;51875;49.994;14.052;2023-11-19T01:24:59;98345.13;;;3.92;100.00
65276;BME280;51875;49.994;14.052;2023-11-19T01:26:14;98337.34;;;3.89;100.00
65276;BME280;51875;49.994;14.052;2023-11-19T01:27:30;98343.47;;;3.44;100.00
65276;BME280;51875;49.994;14.052;2023-11-19T01:28:45;98335.69;;;3.69;100.00
65276;BME280;51875;49.994;14.052;2023-11-19T01:30:02;98340.00;;;3.67;100.00
65276;BME280;51875;49.994;14.052;2023-11-19T01:31:24;98348.66;;;3.33;100.00
65276;BME280;51875;49.994;14.052;2023-11-19T01:32:40;98332.25;;;3.67;100.00
65276;BME280;51875;49.994;14.052;2023-11-19T01:33:56;98332.25;;;3.67;100.00
65276;BME280;51875;49.994;14.052;2023-11-19T01:35:11;98342.59;;;3.62;100.00
65276;BME280;51875;49.994;14.052;2023-11-19T01:36:27;98343.44;;;3.78;100.00
65276;BME280;51875;49.994;14.052;2023-11-19T01:37:43;98341.66;;;3.90;100.00
65276;BME280;51875;49.994;14.052;2023-11-19T01:38:59;98342.53;;;3.89;100.00
65276;BME280;51875;49.994;14.052;2023-11-19T01:40:14;98337.34;;;3.95;100.00
65276;BME280;51875;49.994;14.052;2023-11-19T01:41:34;98335.66;;;3.72;100.00
65276;BME280;51875;49.994;14.052;2023-11-19T01:42:51;98329.56;;;3.93;100.00
65276;BME280;51875;49.994;14.052;2023-11-19T01:44:06;98336.44;;;4.08;100.00
65276;BME280;51875;49.994;14.052;2023-11-19T01:45:27;98322.59;;;4.11;100.00
65276;BME280;51875;49.994;14.052;2023-11-19T01:46:45;98323.50;;;4.05;100.00
65276;BME280;51875;49.994;14.052;2023-11-19T01:48:03;98316.63;;;4.00;100.00
65276;BME280;51875;49.994;14.052;2023-11-19T01:49:19;98314.91;;;3.88;100.00
65276;BME280;51875;49.994;14.052;2023-11-19T01:50:35;98318.31;;;4.02;100.00
65276;BME280;51875;49.994;14.052;2023-11-19T01:51:50;98320.94;;;4.01;100.00
65276;BME280;51875;49.994;14.052;2023-11-19T01:53:07;98321.81;;;3.92;100.00
65276;BME280;51875;49.994;14.052;2023-11-19T01:54:22;98317.47;;;3.95;100.00
65276;BME280;51875;49.994;14.052;2023-11-19T01:55:38;98326.06;;;4.12;100.00
65276;BME280;51875;49.994;14.052;2023-11-19T01:56:55;98322.56;;;4.20;100.00
65276;BME280;51875;49.994;14.052;2023-11-19T01:58:11;98320.97;;;3.88;100.00
65276;BME280;51875;49.994;14.052;2023-11-19T01:59:27;98322.69;;;3.89;100.00
65276;BME280;51875;49.994;14.052;2023-11-19T02:00:44;98322.66;;;4.02;100.00
65276;BME280;51875;49.994;14.052;2023-11-19T02:02:00;98321.78;;;4.01;100.00
65276;BME280;51875;49.994;14.052;2023-11-19T02:03:16;98315.81;;;3.76;100.00
65276;BME280;51875;49.994;14.052;2023-11-19T02:04:32;98315.84;;;3.60;100.00
65276;BME280;51875;49.994;14.052;2023-11-19T02:05:49;98305.50;;;3.46;100.00
65276;BME280;51875;49.994;14.052;2023-11-19T02:07:06;98294.28;;;3.58;100.00
65276;BME280;51875;49.994;14.052;2023-11-19T02:08:22;98289.09;;;3.66;100.00
65276;BME280;51875;49.994;14.052;2023-11-19T02:09:37;98279.59;;;3.54;100.00
65276;BME280;51875;49.994;14.052;2023-11-19T02:10:53;98284.84;;;3.37;100.00
65276;BME280;51875;49.994;14.052;2023-11-19T02:12:12;98281.25;;;3.88;100.00
65276;BME280;51875;49.994;14.052;2023-11-19T02:13:28;98281.22;;;3.97;100.00
65276;BME280;51875;49.994;14.052;2023-11-19T02:14:46;98282.97;;;3.92;100.00
65276;BME280;51875;49.994;14.052;2023-11-19T02:16:02;98282.09;;;3.93;100.00
65276;BME280;51875;49.994;14.052;2023-11-19T02:17:25;98286.34;;;4.09;100.00
65276;BME280;51875;49.994;14.052;2023-11-19T02:18:41;98282.88;;;4.09;100.00
65276;BME280;51875;49.994;14.052;2023-11-19T02:19:58;98274.38;;;3.76;100.00
65276;BME280;51875;49.994;14.052;2023-11-19T02:21:14;98264.91;;;3.65;100.00
65276;BME280;51875;49.994;14.052;2023-11-19T02:22:30;98260.53;;;3.83;100.00
65276;BME280;51875;49.994;14.052;2023-11-19T02:23:45;98250.22;;;3.67;100.00
65276;BME280;51875;49.994;14.052;2023-11-19T02:25:07;98247.66;;;3.60;100.00
65276;BME280;51875;49.994;14.052;2023-11-19T02:26:28;98245.00;;;3.83;100.00
65276;BME280;51875;49.994;14.052;2023-11-19T02:27:53;98246.75;;;3.76;100.00
65276;BME280;51875;49.994;14.052;2023-11-19T02:29:11;98248.47;;;3.85;100.00
65276;BME280;51875;49.994;14.052;2023-11-19T02:30:28;98254.47;;;3.92;100.00
65276;BME280;51875;49.994;14.052;2023-11-19T02:31:44;98250.34;;;3.25;100.00
65276;BME280;51875;49.994;14.052;2023-11-19T02:33:00;98255.44;;;3.60;100.00
65276;BME280;51875;49.994;14.052;2023-11-19T02:34:20;98247.63;;;3.72;100.00
65276;BME280;51875;49.994;14.052;2023-11-19T02:35:37;98243.31;;;3.76;100.00
65276;BME280;51875;49.994;14.052;2023-11-19T02:36:52;98245.03;;;3.81;100.00
65276;BME280;51875;49.994;14.052;2023-11-19T02:38:08;98240.69;;;3.84;100.00
65276;BME280;51875;49.994;14.052;2023-11-19T02:39:24;98238.97;;;3.87;100.00
65276;BME280;51875;49.994;14.052;2023-11-19T02:40:40;98232.13;;;3.60;100.00
65276;BME280;51875;49.994;14.052;2023-11-19T02:41:55;98237.25;;;3.75;100.00
65276;BME280;51875;49.994;14.052;2023-11-19T02:43:11;98238.19;;;3.65;100.00
65276;BME280;51875;49.994;14.052;2023-11-19T02:44:26;98242.38;;;3.94;100.00
65276;BME280;51875;49.994;14.052;2023-11-19T02:45:45;98232.84;;;3.99;100.00
65276;BME280;51875;49.994;14.052;2023-11-19T02:47:01;98234.72;;;3.66;100.00
65276;BME280;51875;49.994;14.052;2023-11-19T02:48:18;98221.72;;;3.75;100.00
65276;BME280;51875;49.994;14.052;2023-11-19T02:49:34;98227.03;;;3.41;100.00
65276;BME280;51875;49.994;14.052;2023-11-19T02:50:49;98226.91;;;3.78;100.00
65276;BME280;51875;49.994;14.052;2023-11-19T02:52:06;98219.22;;;3.49;100.00
65276;BME280;51875;49.994;14.052;2023-11-19T02:53:21;98226.03;;;3.79;100.00
65276;BME280;51875;49.994;14.052;2023-11-19T02:54:37;98222.72;;;3.40;100.00
65276;BME280;51875;49.994;14.052;2023-11-19T02:55:53;98213.97;;;3.74;100.00
65276;BME280;51875;49.994;14.052;2023-11-19T02:57:08;98204.47;;;3.76;100.00
65276;BME280;51875;49.994;14.052;2023-11-19T02:58:25;98200.97;;;3.86;100.00
65276;BME280;51875;49.994;14.052;2023-11-19T02:59:43;98207.91;;;3.83;100.00
65276;BME280;51875;49.994;14.052;2023-11-19T03:00:59;98203.50;;;3.97;100.00
65276;BME280;51875;49.994;14.052;2023-11-19T03:02:17;98200.22;;;3.53;100.00
65276;BME280;51875;49.994;14.052;2023-11-19T03:03:33;98196.63;;;3.90;100.00
65276;BME280;51875;49.994;14.052;2023-11-19T03:04:53;98191.59;;;3.60;100.00
65276;BME280;51875;49.994;14.052;2023-11-19T03:06:09;98184.59;;;3.81;100.00
65276;BME280;51875;49.994;14.052;2023-11-19T03:07:25;98173.34;;;3.87;100.00
65276;BME280;51875;49.994;14.052;2023-11-19T03:08:41;98176.81;;;3.83;100.00
65276;BME280;51875;49.994;14.052;2023-11-19T03:09:56;98178.63;;;3.62;100.00
65276;BME280;51875;49.994;14.052;2023-11-19T03:11:12;98181.19;;;3.70;100.00
65276;BME280;51875;49.994;14.052;2023-11-19T03:12:27;98168.31;;;3.56;100.00
65276;BME280;51875;49.994;14.052;2023-11-19T03:13:43;98168.31;;;3.57;100.00
65276;BME280;51875;49.994;14.052;2023-11-19T03:14:58;98168.16;;;3.88;100.00
65276;BME280;51875;49.994;14.052;2023-11-19T03:16:14;98166.38;;;3.93;100.00
65276;BME280;51875;49.994;14.052;2023-11-19T03:17:30;98157.78;;;3.93;100.00
65276;BME280;51875;49.994;14.052;2023-11-19T03:18:45;98154.34;;;3.85;100.00
65276;BME280;51875;49.994;14.052;2023-11-19T03:20:01;98158.72;;;3.79;100.00
65276;BME280;51875;49.994;14.052;2023-11-19T03:21:16;98150.06;;;3.80;100.00
65276;BME280;51875;49.994;14.052;2023-11-19T03:22:32;98149.25;;;3.71;100.00
65276;BME280;51875;49.994;14.052;2023-11-19T03:23:51;98151.94;;;3.53;100.00
65276;BME280;51875;49.994;14.052;2023-11-19T03:25:07;98143.19;;;3.75;100.00
65276;BME280;51875;49.994;14.052;2023-11-19T03:26:23;98141.41;;;3.86;100.00
65276;BME280;51875;49.994;14.052;2023-11-19T03:27:39;98138.78;;;3.88;100.00
65276;BME280;51875;49.994;14.052;2023-11-19T03:28:57;98137.03;;;3.96;100.00
65276;BME280;51875;49.994;14.052;2023-11-19T03:30:12;98143.94;;;3.97;100.00
65276;BME280;51875;49.994;14.052;2023-11-19T03:31:28;98141.41;;;3.85;100.00
65276;BME280;51875;49.994;14.052;2023-11-19T03:32:44;98137.13;;;3.79;100.00
65276;BME280;51875;49.994;14.052;2023-11-19T03:33:59;98122.59;;;3.50;100.00
65276;BME280;51875;49.994;14.052;2023-11-19T03:35:15;98127.78;;;3.51;100.00
65276;BME280;51875;49.994;14.052;2023-11-19T03:36:33;98129.41;;;3.73;100.00
65276;BME280;51875;49.994;14.052;2023-11-19T03:37:52;98125.78;;;3.95;100.00
65276;BME280;51875;49.994;14.052;2023-11-19T03:39:08;98131.00;;;3.91;100.00
65276;BME280;51875;49.994;14.052;2023-11-19T03:40:23;98131.88;;;3.93;100.00
65276;BME280;51875;49.994;14.052;2023-11-19T03:41:40;98116.50;;;3.60;100.00
65276;BME280;51875;49.994;14.052;2023-11-19T03:42:56;98108.47;;;4.02;100.00
65276;BME280;51875;49.994;14.052;2023-11-19T03:44:13;98117.06;;;4.12;100.00
65276;BME280;51875;49.994;14.052;2023-11-19T03:45:29;98115.59;;;3.67;100.00
65276;BME280;51875;49.994;14.052;2023-11-19T03:46:45;98115.53;;;3.81;100.00
65276;BME280;51875;49.994;14.052;2023-11-19T03:48:01;98114.47;;;4.12;100.00
65276;BME280;51875;49.994;14.052;2023-11-19T03:49:17;98110.28;;;3.92;100.00
65276;BME280;51875;49.994;14.052;2023-11-19T03:50:33;98113.69;;;3.98;100.00
65276;BME280;51875;49.994;14.052;2023-11-19T03:51:48;98107.59;;;4.06;100.00
65276;BME280;51875;49.994;14.052;2023-11-19T03:53:04;98108.63;;;3.85;100.00
65276;BME280;51875;49.994;14.052;2023-11-19T03:54:20;98110.16;;;4.08;100.00
65276;BME280;51875;49.994;14.052;2023-11-19T03:55:38;98115.28;;;4.16;100.00
65276;BME280;51875;49.994;14.052;2023-11-19T03:56:54;98106.72;;;4.12;100.00
65276;BME280;51875;49.994;14.052;2023-11-19T03:58:09;98107.53;;;4.17;100.00
65276;BME280;51875;49.994;14.052;2023-11-19T03:59:25;98108.31;;;4.26;100.00
65276;BME280;51875;49.994;14.052;2023-11-19T04:00:40;98109.88;;;4.44;100.00
65276;BME280;51875;49.994;14.052;2023-11-19T04:01:56;98111.84;;;4.20;100.00
65276;BME280;51875;49.994;14.052;2023-11-19T04:03:12;98098.94;;;4.10;100.00
65276;BME280;51875;49.994;14.052;2023-11-19T04:04:27;98107.72;;;3.88;100.00
65276;BME280;51875;49.994;14.052;2023-11-19T04:05:43;98103.19;;;4.21;100.00
65276;BME280;51875;49.994;14.052;2023-11-19T04:06:58;98097.88;;;4.36;100.00
65276;BME280;51875;49.994;14.052;2023-11-19T04:08:16;98102.47;;;4.00;100.00
65276;BME280;51875;49.994;14.052;2023-11-19T04:09:31;98100.66;;;4.12;100.00
65276;BME280;51875;49.994;14.052;2023-11-19T04:10:50;98093.81;;;4.01;100.00
65276;BME280;51875;49.994;14.052;2023-11-19T04:12:05;98102.31;;;4.19;100.00
65276;BME280;51875;49.994;14.052;2023-11-19T04:13:22;98087.91;;;3.84;100.00
65276;BME280;51875;49.994;14.052;2023-11-19T04:14:39;98086.03;;;4.01;100.00
65276;BME280;51875;49.994;14.052;2023-11-19T04:15:55;98085.06;;;4.16;100.00
65276;BME280;51875;49.994;14.052;2023-11-19T04:17:11;98075.66;;;4.04;100.00
65276;BME280;51875;49.994;14.052;2023-11-19T04:18:27;98072.09;;;4.18;100.00
65276;BME280;51875;49.994;14.052;2023-11-19T04:19:42;98067.84;;;4.12;100.00
65276;BME280;51875;49.994;14.052;2023-11-19T04:20:58;98053.97;;;4.16;100.00
65276;BME280;51875;49.994;14.052;2023-11-19T04:22:14;98058.28;;;4.16;100.00
65276;BME280;51875;49.994;14.052;2023-11-19T04:23:30;98054.84;;;4.15;100.00
65276;BME280;51875;49.994;14.052;2023-11-19T04:24:45;98052.31;;;4.12;100.00
65276;BME280;51875;49.994;14.052;2023-11-19T04:26:04;98055.78;;;4.09;100.00
65276;BME280;51875;49.994;14.052;2023-11-19T04:27:19;98056.69;;;3.99;100.00
65276;BME280;51875;49.994;14.052;2023-11-19T04:28:35;98065.28;;;4.07;100.00
65276;BME280;51875;49.994;14.052;2023-11-19T04:29:51;98061.84;;;4.05;100.00
65276;BME280;51875;49.994;14.052;2023-11-19T04:31:06;98044.69;;;3.92;100.00
65276;BME280;51875;49.994;14.052;2023-11-19T04:32:22;98038.44;;;4.16;100.00
65276;BME280;51875;49.994;14.052;2023-11-19T04:33:38;98040.19;;;4.14;100.00
65276;BME280;51875;49.994;14.052;2023-11-19T04:34:53;98025.59;;;4.04;100.00
65276;BME280;51875;49.994;14.052;2023-11-19T04:36:09;98024.56;;;4.19;100.00
65276;BME280;51875;49.994;14.052;2023-11-19T04:37:25;98023.78;;;4.14;100.00
65276;BME280;51875;49.994;14.052;2023-11-19T04:38:41;98023.69;;;4.21;100.00
65276;BME280;51875;49.994;14.052;2023-11-19T04:39:56;98020.63;;;3.74;100.00
65276;BME280;51875;49.994;14.052;2023-11-19T04:41:12;98028.97;;;4.12;100.00
65276;BME280;51875;49.994;14.052;2023-11-19T04:42:28;98020.19;;;4.27;100.00
65276;BME280;51875;49.994;14.052;2023-11-19T04:43:44;98024.53;;;4.25;100.00
65276;BME280;51875;49.994;14.052;2023-11-19T04:45:00;98014.44;;;3.92;100.00
65276;BME280;51875;49.994;14.052;2023-11-19T04:46:16;98013.41;;;4.15;100.00
65276;BME280;51875;49.994;14.052;2023-11-19T04:47:31;98018.75;;;3.93;100.00
65276;BME280;51875;49.994;14.052;2023-11-19T04:48:47;98002.09;;;4.24;100.00
65276;BME280;51875;49.994;14.052;2023-11-19T04:50:03;98001.19;;;4.28;100.00
65276;BME280;51875;49.994;14.052;2023-11-19T04:51:19;97993.53;;;4.16;100.00
65276;BME280;51875;49.994;14.052;2023-11-19T04:52:34;97986.72;;;4.05;100.00
65276;BME280;51875;49.994;14.052;2023-11-19T04:53:50;97991.06;;;4.00;100.00
65276;BME280;51875;49.994;14.052;2023-11-19T04:55:06;97988.47;;;4.00;100.00
65276;BME280;51875;49.994;14.052;2023-11-19T04:56:21;97984.97;;;4.07;100.00
65276;BME280;51875;49.994;14.052;2023-11-19T04:57:38;97992.69;;;4.14;100.00
65276;BME280;51875;49.994;14.052;2023-11-19T04:58:54;97994.25;;;4.32;100.00
65276;BME280;51875;49.994;14.052;2023-11-19T05:00:10;97988.97;;;4.40;100.00
65276;BME280;51875;49.994;14.052;2023-11-19T05:01:26;97996.75;;;4.41;100.00
65276;BME280;51875;49.994;14.052;2023-11-19T05:02:42;98002.69;;;4.51;100.00
65276;BME280;51875;49.994;14.052;2023-11-19T05:03:58;97999.19;;;4.57;100.00
65276;BME280;51875;49.994;14.052;2023-11-19T05:05:17;97992.34;;;4.48;100.00
65276;BME280;51875;49.994;14.052;2023-11-19T05:06:33;97985.59;;;4.33;100.00
65276;BME280;51875;49.994;14.052;2023-11-19T05:07:50;97970.31;;;4.06;100.00
65276;BME280;51875;49.994;14.052;2023-11-19T05:09:06;97973.53;;;4.29;100.00
65276;BME280;51875;49.994;14.052;2023-11-19T05:10:24;97973.34;;;4.46;100.00
65276;BME280;51875;49.994;14.052;2023-11-19T05:11:40;97970.03;;;4.34;100.00
65276;BME280;51875;49.994;14.052;2023-11-19T05:12:56;97969.41;;;4.10;100.00
65276;BME280;51875;49.994;14.052;2023-11-19T05:14:11;97967.72;;;4.03;100.00
65276;BME280;51875;49.994;14.052;2023-11-19T05:15:28;97957.03;;;4.36;100.00
65276;BME280;51875;49.994;14.052;2023-11-19T05:16:44;97968.94;;;4.54;100.00
65276;BME280;51875;49.994;14.052;2023-11-19T05:17:59;97962.94;;;4.52;100.00
65276;BME280;51875;49.994;14.052;2023-11-19T05:19:15;97962.34;;;4.25;100.00
65276;BME280;51875;49.994;14.052;2023-11-19T05:20:31;97967.31;;;4.44;100.00
65276;BME280;51875;49.994;14.052;2023-11-19T05:21:46;97968.25;;;4.38;100.00
65276;BME280;51875;49.994;14.052;2023-11-19T05:23:02;97954.34;;;4.45;100.00
65276;BME280;51875;49.994;14.052;2023-11-19T05:24:18;97966.56;;;4.34;100.00
65276;BME280;51875;49.994;14.052;2023-11-19T05:25:33;97960.56;;;4.30;100.00
65276;BME280;51875;49.994;14.052;2023-11-19T05:26:49;97952.03;;;4.19;100.00
65276;BME280;51875;49.994;14.052;2023-11-19T05:28:06;97950.84;;;4.51;100.00
65276;BME280;51875;49.994;14.052;2023-11-19T05:29:21;97947.91;;;3.98;100.00
65276;BME280;51875;49.994;14.052;2023-11-19T05:30:37;97944.00;;;4.45;100.00
65276;BME280;51875;49.994;14.052;2023-11-19T05:31:53;97943.75;;;4.65;100.00
65276;BME280;51875;49.994;14.052;2023-11-19T05:33:10;97944.72;;;4.57;100.00
65276;BME280;51875;49.994;14.052;2023-11-19T05:34:27;97937.75;;;4.62;100.00
65276;BME280;51875;49.994;14.052;2023-11-19T05:35:43;97937.75;;;4.63;100.00
65276;BME280;51875;49.994;14.052;2023-11-19T05:36:58;97933.47;;;4.56;100.00
65276;BME280;51875;49.994;14.052;2023-11-19T05:38:14;97929.50;;;4.27;100.00
65276;BME280;51875;49.994;14.052;2023-11-19T05:39:29;97928.63;;;4.30;100.00
65276;BME280;51875;49.994;14.052;2023-11-19T05:40:45;97922.38;;;4.46;100.00
65276;BME280;51875;49.994;14.052;2023-11-19T05:42:03;97919.88;;;4.37;100.00
65276;BME280;51875;49.994;14.052;2023-11-19T05:43:19;97914.50;;;4.56;100.00
65276;BME280;51875;49.994;14.052;2023-11-19T05:44:34;97914.69;;;4.40;100.00
65276;BME280;51875;49.994;14.052;2023-11-19T05:45:50;97915.53;;;4.41;100.00
65276;BME280;51875;49.994;14.052;2023-11-19T05:47:06;97917.31;;;4.35;100.00
65276;BME280;51875;49.994;14.052;2023-11-19T05:48:22;97926.53;;;4.60;100.00
65276;BME280;51875;49.994;14.052;2023-11-19T05:49:38;97929.28;;;4.49;100.00
65276;BME280;51875;49.994;14.052;2023-11-19T05:50:53;97930.09;;;4.49;100.00
65276;BME280;51875;49.994;14.052;2023-11-19T05:52:10;97921.41;;;4.53;100.00
65276;BME280;51875;49.994;14.052;2023-11-19T05:53:27;97909.25;;;4.59;100.00
65276;BME280;51875;49.994;14.052;2023-11-19T05:54:42;97915.53;;;4.41;100.00
65276;BME280;51875;49.994;14.052;2023-11-19T05:55:58;97917.09;;;4.54;100.00
65276;BME280;51875;49.994;14.052;2023-11-19T05:57:14;97921.16;;;4.74;100.00
65276;BME280;51875;49.994;14.052;2023-11-19T05:58:30;97915.75;;;4.91;100.00
65276;BME280;51875;49.994;14.052;2023-11-19T05:59:46;97918.41;;;4.89;100.00
65276;BME280;51875;49.994;14.052;2023-11-19T06:01:01;97917.47;;;4.93;100.00
65276;BME280;51875;49.994;14.052;2023-11-19T06:02:18;97913.03;;;4.34;100.00
65276;BME280;51875;49.994;14.052;2023-11-19T06:03:34;97913.41;;;4.72;100.00
65276;BME280;51875;49.994;14.052;2023-11-19T06:04:50;97915.13;;;4.72;100.00
65276;BME280;51875;49.994;14.052;2023-11-19T06:06:06;97916.84;;;4.76;100.00
65276;BME280;51875;49.994;14.052;2023-11-19T06:07:21;97908.03;;;4.88;100.00
65276;BME280;51875;49.994;14.052;2023-11-19T06:08:37;97906.56;;;4.68;100.00
65276;BME280;51875;49.994;14.052;2023-11-19T06:09:52;97898.75;;;4.71;100.00
65276;BME280;51875;49.994;14.052;2023-11-19T06:11:10;97907.41;;;4.67;100.00
65276;BME280;51875;49.994;14.052;2023-11-19T06:12:30;97905.44;;;4.86;100.00
65276;BME280;51875;49.994;14.052;2023-11-19T06:13:47;97908.88;;;4.88;100.00
65276;BME280;51875;49.994;14.052;2023-11-19T06:15:05;97900.50;;;4.68;100.00
65276;BME280;51875;49.994;14.052;2023-11-19T06:16:21;97907.25;;;4.81;100.00
65276;BME280;51875;49.994;14.052;2023-11-19T06:17:37;97913.31;;;4.80;100.00
65276;BME280;51875;49.994;14.052;2023-11-19T06:18:52;97912.59;;;4.69;100.00
65276;BME280;51875;49.994;14.052;2023-11-19T06:20:09;97914.38;;;4.65;100.00
65276;BME280;51875;49.994;14.052;2023-11-19T06:21:27;97913.22;;;4.86;100.00
65276;BME280;51875;49.994;14.052;2023-11-19T06:22:42;97911.56;;;4.82;100.00
65276;BME280;51875;49.994;14.052;2023-11-19T06:23:59;97904.81;;;4.67;100.00
65276;BME280;51875;49.994;14.052;2023-11-19T06:25:15;97892.53;;;4.83;100.00
65276;BME280;51875;49.994;14.052;2023-11-19T06:26:30;97896.09;;;4.76;100.00
65276;BME280;51875;49.994;14.052;2023-11-19T06:27:46;97899.47;;;4.83;100.00
65276;BME280;51875;49.994;14.052;2023-11-19T06:29:01;97901.22;;;4.79;100.00
65276;BME280;51875;49.994;14.052;2023-11-19T06:30:17;97903.72;;;4.87;100.00
65276;BME280;51875;49.994;14.052;2023-11-19T06:31:33;97900.41;;;4.77;100.00
65276;BME280;51875;49.994;14.052;2023-11-19T06:32:49;97899.28;;;4.26;100.00
65276;BME280;51875;49.994;14.052;2023-11-19T06:34:04;97906.63;;;4.62;100.00
65276;BME280;51875;49.994;14.052;2023-11-19T06:35:20;97902.13;;;4.76;100.00
65276;BME280;51875;49.994;14.052;2023-11-19T06:36:35;97899.97;;;4.42;100.00
65276;BME280;51875;49.994;14.052;2023-11-19T06:37:51;97899.13;;;4.40;100.00
65276;BME280;51875;49.994;14.052;2023-11-19T06:39:07;97911.13;;;4.46;100.00